sensor_id;sensor_type;location;lat;lon;timestamp;P1;durP1;ratioP1;P2;durP2;ratioP2
50102;SDS011;35993;52.604;10.078;2023-04-25T00:02:02;8.90;;;4.00;;
50102;SDS011;35993;52.604;10.078;2023-04-25T00:04:28;8.82;;;3.67;;
50102;SDS011;35993;52.604;10.078;2023-04-25T00:06:55;10.07;;;3.78;;
50102;SDS011;35993;52.604;10.078;2023-04-25T00:09:21;8.20;;;3.63;;
50102;SDS011;35993;52.604;10.078;2023-04-25T00:11:47;11.70;;;3.72;;
50102;SDS011;35993;52.604;10.078;2023-04-25T00:14:13;10.77;;;3.78;;
50102;SDS011;35993;52.604;10.078;2023-04-25T00:16:39;9.27;;;3.65;;
50102;SDS011;35993;52.604;10.078;2023-04-25T00:19:06;8.95;;;3.40;;
50102;SDS011;35993;52.604;10.078;2023-04-25T00:21:32;9.65;;;3.92;;
50102;SDS011;35993;52.604;10.078;2023-04-25T00:23:59;9.18;;;3.45;;
50102;SDS011;35993;52.604;10.078;2023-04-25T00:26:25;8.77;;;3.80;;
50102;SDS011;35993;52.604;10.078;2023-04-25T00:28:51;9.75;;;3.50;;
50102;SDS011;35993;52.604;10.078;2023-04-25T00:31:17;9.70;;;3.63;;
50102;SDS011;35993;52.604;10.078;2023-04-25T00:33:43;11.73;;;3.45;;
50102;SDS011;35993;52.604;10.078;2023-04-25T00:36:08;11.27;;;3.83;;
50102;SDS011;35993;52.604;10.078;2023-04-25T00:38:34;11.05;;;3.85;;
50102;SDS011;35993;52.604;10.078;2023-04-25T00:41:00;7.55;;;3.58;;
50102;SDS011;35993;52.604;10.078;2023-04-25T00:43:26;5.82;;;3.58;;
50102;SDS011;35993;52.604;10.078;2023-04-25T00:45:52;10.95;;;3.60;;
50102;SDS011;35993;52.604;10.078;2023-04-25T00:48:19;12.85;;;4.03;;
50102;SDS011;35993;52.604;10.078;2023-04-25T00:50:54;8.80;;;3.97;;
50102;SDS011;35993;52.604;10.078;2023-04-25T00:53:22;12.63;;;4.32;;
50102;SDS011;35993;52.604;10.078;2023-04-25T00:55:49;8.95;;;3.83;;
50102;SDS011;35993;52.604;10.078;2023-04-25T00:58:16;14.80;;;4.22;;
50102;SDS011;35993;52.604;10.078;2023-04-25T01:00:43;13.13;;;3.72;;
50102;SDS011;35993;52.604;10.078;2023-04-25T01:03:11;9.82;;;4.18;;
50102;SDS011;35993;52.604;10.078;2023-04-25T01:05:36;9.02;;;3.83;;
50102;SDS011;35993;52.604;10.078;2023-04-25T01:08:02;10.80;;;4.22;;
50102;SDS011;35993;52.604;10.078;2023-04-25T01:10:28;12.38;;;5.00;;
50102;SDS011;35993;52.604;10.078;2023-04-25T01:12:54;10.25;;;3.85;;
50102;SDS011;35993;52.604;10.078;2023-04-25T01:15:20;11.90;;;3.78;;
50102;SDS011;35993;52.604;10.078;2023-04-25T01:17:45;12.82;;;3.70;;
50102;SDS011;35993;52.604;10.078;2023-04-25T01:20:11;12.80;;;4.63;;
50102;SDS011;35993;52.604;10.078;2023-04-25T01:22:39;9.63;;;3.72;;
50102;SDS011;35993;52.604;10.078;2023-04-25T01:25:04;9.15;;;4.07;;
50102;SDS011;35993;52.604;10.078;2023-04-25T01:27:31;9.93;;;3.65;;
50102;SDS011;35993;52.604;10.078;2023-04-25T01:29:56;10.50;;;4.05;;
50102;SDS011;35993;52.604;10.078;2023-04-25T01:32:22;11.05;;;3.60;;
50102;SDS011;35993;52.604;10.078;2023-04-25T01:34:49;13.32;;;3.95;;
50102;SDS011;35993;52.604;10.078;2023-04-25T01:37:14;10.63;;;3.80;;
50102;SDS011;35993;52.604;10.078;2023-04-25T01:39:43;11.45;;;4.00;;
50102;SDS011;35993;52.604;10.078;2023-04-25T01:42:09;10.82;;;4.18;;
50102;SDS011;35993;52.604;10.078;2023-04-25T01:44:35;10.82;;;3.90;;
50102;SDS011;35993;52.604;10.078;2023-04-25T01:47:01;10.30;;;3.47;;
50102;SDS011;35993;52.604;10.078;2023-04-25T01:49:27;11.18;;;4.15;;
50102;SDS011;35993;52.604;10.078;2023-04-25T01:51:53;13.25;;;3.65;;
50102;SDS011;35993;52.604;10.078;2023-04-25T01:54:18;12.68;;;4.50;;
50102;SDS011;35993;52.604;10.078;2023-04-25T01:56:49;13.13;;;4.28;;
50102;SDS011;35993;52.604;10.078;2023-04-25T01:59:16;10.88;;;4.43;;
50102;SDS011;35993;52.604;10.078;2023-04-25T02:02:19;13.25;;;4.63;;
50102;SDS011;35993;52.604;10.078;2023-04-25T02:04:44;12.00;;;4.30;;
50102;SDS011;35993;52.604;10.078;2023-04-25T02:07:11;12.07;;;4.30;;
50102;SDS011;35993;52.604;10.078;2023-04-25T02:09:48;13.82;;;4.65;;
50102;SDS011;35993;52.604;10.078;2023-04-25T02:12:15;11.30;;;4.80;;
50102;SDS011;35993;52.604;10.078;2023-04-25T02:15:01;10.48;;;4.38;;
50102;SDS011;35993;52.604;10.078;2023-04-25T02:17:40;10.02;;;4.43;;
50102;SDS011;35993;52.604;10.078;2023-04-25T02:20:06;11.52;;;4.40;;
50102;SDS011;35993;52.604;10.078;2023-04-25T02:22:32;13.15;;;4.93;;
50102;SDS011;35993;52.604;10.078;2023-04-25T02:24:59;10.95;;;4.18;;
50102;SDS011;35993;52.604;10.078;2023-04-25T02:27:24;9.20;;;4.13;;
50102;SDS011;35993;52.604;10.078;2023-04-25T02:29:50;12.55;;;3.80;;
50102;SDS011;35993;52.604;10.078;2023-04-25T02:32:16;12.38;;;3.70;;
50102;SDS011;35993;52.604;10.078;2023-04-25T02:34:41;13.20;;;3.80;;
50102;SDS011;35993;52.604;10.078;2023-04-25T02:37:07;12.65;;;3.22;;
50102;SDS011;35993;52.604;10.078;2023-04-25T02:39:32;15.38;;;3.53;;
50102;SDS011;35993;52.604;10.078;2023-04-25T02:41:57;11.13;;;3.80;;
50102;SDS011;35993;52.604;10.078;2023-04-25T02:44:23;14.63;;;3.60;;
50102;SDS011;35993;52.604;10.078;2023-04-25T02:46:49;12.82;;;3.10;;
50102;SDS011;35993;52.604;10.078;2023-04-25T02:49:14;12.85;;;3.03;;
50102;SDS011;35993;52.604;10.078;2023-04-25T02:51:40;13.82;;;3.40;;
50102;SDS011;35993;52.604;10.078;2023-04-25T02:54:06;10.95;;;3.60;;
50102;SDS011;35993;52.604;10.078;2023-04-25T02:56:36;12.38;;;2.95;;
50102;SDS011;35993;52.604;10.078;2023-04-25T02:59:02;14.82;;;3.40;;
50102;SDS011;35993;52.604;10.078;2023-04-25T03:01:29;16.80;;;3.95;;
50102;SDS011;35993;52.604;10.078;2023-04-25T03:03:55;8.35;;;3.50;;
50102;SDS011;35993;52.604;10.078;2023-04-25T03:06:21;13.85;;;3.38;;
50102;SDS011;35993;52.604;10.078;2023-04-25T03:08:46;15.25;;;3.35;;
50102;SDS011;35993;52.604;10.078;2023-04-25T03:11:12;12.13;;;3.08;;
50102;SDS011;35993;52.604;10.078;2023-04-25T03:13:37;13.50;;;3.72;;
50102;SDS011;35993;52.604;10.078;2023-04-25T03:16:03;14.60;;;3.03;;
50102;SDS011;35993;52.604;10.078;2023-04-25T03:18:29;14.90;;;3.80;;
50102;SDS011;35993;52.604;10.078;2023-04-25T03:20:55;17.83;;;3.10;;
50102;SDS011;35993;52.604;10.078;2023-04-25T03:23:20;11.00;;;3.33;;
50102;SDS011;35993;52.604;10.078;2023-04-25T03:25:46;13.13;;;2.97;;
50102;SDS011;35993;52.604;10.078;2023-04-25T03:28:12;15.05;;;3.50;;
50102;SDS011;35993;52.604;10.078;2023-04-25T03:30:37;19.40;;;3.60;;
50102;SDS011;35993;52.604;10.078;2023-04-25T03:33:03;12.80;;;3.25;;
50102;SDS011;35993;52.604;10.078;2023-04-25T03:35:29;19.13;;;3.47;;
50102;SDS011;35993;52.604;10.078;2023-04-25T03:37:54;16.63;;;3.40;;
50102;SDS011;35993;52.604;10.078;2023-04-25T03:40:25;16.23;;;3.67;;
50102;SDS011;35993;52.604;10.078;2023-04-25T03:43:05;13.50;;;3.35;;
50102;SDS011;35993;52.604;10.078;2023-04-25T03:45:32;19.48;;;3.53;;
50102;SDS011;35993;52.604;10.078;2023-04-25T03:47:58;14.90;;;3.13;;
50102;SDS011;35993;52.604;10.078;2023-04-25T03:50:26;14.75;;;3.38;;
50102;SDS011;35993;52.604;10.078;2023-04-25T03:52:52;15.93;;;3.40;;
50102;SDS011;35993;52.604;10.078;2023-04-25T03:55:17;18.40;;;3.78;;
50102;SDS011;35993;52.604;10.078;2023-04-25T03:57:43;12.48;;;3.00;;
50102;SDS011;35993;52.604;10.078;2023-04-25T04:00:09;16.67;;;3.90;;
50102;SDS011;35993;52.604;10.078;2023-04-25T04:05:07;14.93;;;3.10;;
50102;SDS011;35993;52.604;10.078;2023-04-25T04:07:36;14.15;;;3.30;;
50102;SDS011;35993;52.604;10.078;2023-04-25T04:10:06;12.25;;;3.25;;
50102;SDS011;35993;52.604;10.078;2023-04-25T04:12:35;20.10;;;3.65;;
50102;SDS011;35993;52.604;10.078;2023-04-25T04:15:02;20.08;;;3.75;;
50102;SDS011;35993;52.604;10.078;2023-04-25T04:17:33;20.13;;;3.47;;
50102;SDS011;35993;52.604;10.078;2023-04-25T04:19:59;17.15;;;3.47;;
50102;SDS011;35993;52.604;10.078;2023-04-25T04:22:28;15.13;;;3.30;;
50102;SDS011;35993;52.604;10.078;2023-04-25T04:24:56;15.02;;;3.60;;
50102;SDS011;35993;52.604;10.078;2023-04-25T04:27:42;14.20;;;3.42;;
50102;SDS011;35993;52.604;10.078;2023-04-25T04:30:23;14.40;;;3.38;;
50102;SDS011;35993;52.604;10.078;2023-04-25T04:32:55;12.02;;;3.42;;
50102;SDS011;35993;52.604;10.078;2023-04-25T04:35:22;12.10;;;3.17;;
50102;SDS011;35993;52.604;10.078;2023-04-25T04:37:49;16.67;;;4.10;;
50102;SDS011;35993;52.604;10.078;2023-04-25T04:40:17;17.63;;;3.78;;
50102;SDS011;35993;52.604;10.078;2023-04-25T04:42:52;13.27;;;3.33;;
50102;SDS011;35993;52.604;10.078;2023-04-25T04:45:44;14.18;;;3.75;;
50102;SDS011;35993;52.604;10.078;2023-04-25T04:48:28;16.17;;;3.40;;
50102;SDS011;35993;52.604;10.078;2023-04-25T04:51:18;12.10;;;2.88;;
50102;SDS011;35993;52.604;10.078;2023-04-25T04:53:43;13.13;;;3.30;;
50102;SDS011;35993;52.604;10.078;2023-04-25T04:56:41;15.20;;;3.15;;
50102;SDS011;35993;52.604;10.078;2023-04-25T04:59:33;24.08;;;3.97;;
50102;SDS011;35993;52.604;10.078;2023-04-25T05:02:10;17.40;;;3.78;;
50102;SDS011;35993;52.604;10.078;2023-04-25T05:05:01;17.00;;;3.75;;
50102;SDS011;35993;52.604;10.078;2023-04-25T05:07:50;17.20;;;3.67;;
50102;SDS011;35993;52.604;10.078;2023-04-25T05:10:34;16.55;;;3.70;;
50102;SDS011;35993;52.604;10.078;2023-04-25T05:13:05;13.20;;;4.10;;
50102;SDS011;35993;52.604;10.078;2023-04-25T05:15:59;18.50;;;3.30;;
50102;SDS011;35993;52.604;10.078;2023-04-25T05:18:46;13.63;;;3.38;;
50102;SDS011;35993;52.604;10.078;2023-04-25T05:24:05;12.60;;;3.00;;
50102;SDS011;35993;52.604;10.078;2023-04-25T05:26:51;19.15;;;3.42;;
50102;SDS011;35993;52.604;10.078;2023-04-25T05:29:43;19.48;;;3.72;;
50102;SDS011;35993;52.604;10.078;2023-04-25T05:32:34;9.45;;;2.90;;
50102;SDS011;35993;52.604;10.078;2023-04-25T05:35:01;16.27;;;3.63;;
50102;SDS011;35993;52.604;10.078;2023-04-25T05:37:31;16.52;;;3.47;;
50102;SDS011;35993;52.604;10.078;2023-04-25T05:40:06;11.65;;;3.42;;
50102;SDS011;35993;52.604;10.078;2023-04-25T05:42:50;17.02;;;3.03;;
50102;SDS011;35993;52.604;10.078;2023-04-25T05:48:25;16.40;;;3.25;;
50102;SDS011;35993;52.604;10.078;2023-04-25T05:51:03;16.10;;;2.80;;
50102;SDS011;35993;52.604;10.078;2023-04-25T05:53:46;17.20;;;3.08;;
50102;SDS011;35993;52.604;10.078;2023-04-25T05:56:13;12.70;;;3.10;;
50102;SDS011;35993;52.604;10.078;2023-04-25T05:58:39;13.43;;;3.10;;
50102;SDS011;35993;52.604;10.078;2023-04-25T06:01:06;14.07;;;3.13;;
50102;SDS011;35993;52.604;10.078;2023-04-25T06:03:32;15.75;;;2.97;;
50102;SDS011;35993;52.604;10.078;2023-04-25T06:05:58;16.00;;;3.00;;
50102;SDS011;35993;52.604;10.078;2023-04-25T06:08:25;16.73;;;3.70;;
50102;SDS011;35993;52.604;10.078;2023-04-25T06:10:50;13.57;;;2.85;;
50102;SDS011;35993;52.604;10.078;2023-04-25T06:13:16;13.10;;;3.53;;
50102;SDS011;35993;52.604;10.078;2023-04-25T06:15:41;14.07;;;3.10;;
50102;SDS011;35993;52.604;10.078;2023-04-25T06:18:08;13.25;;;2.92;;
50102;SDS011;35993;52.604;10.078;2023-04-25T06:20:33;12.90;;;2.38;;
50102;SDS011;35993;52.604;10.078;2023-04-25T06:23:00;12.43;;;2.90;;
50102;SDS011;35993;52.604;10.078;2023-04-25T06:25:40;12.10;;;3.38;;
50102;SDS011;35993;52.604;10.078;2023-04-25T06:28:06;13.05;;;2.60;;
50102;SDS011;35993;52.604;10.078;2023-04-25T06:30:32;13.65;;;3.13;;
50102;SDS011;35993;52.604;10.078;2023-04-25T06:33:03;15.23;;;2.88;;
50102;SDS011;35993;52.604;10.078;2023-04-25T06:35:30;16.33;;;3.13;;
50102;SDS011;35993;52.604;10.078;2023-04-25T06:37:56;13.52;;;2.40;;
50102;SDS011;35993;52.604;10.078;2023-04-25T06:40:23;15.82;;;2.92;;
50102;SDS011;35993;52.604;10.078;2023-04-25T06:42:48;15.00;;;2.83;;
50102;SDS011;35993;52.604;10.078;2023-04-25T06:45:33;10.85;;;2.33;;
50102;SDS011;35993;52.604;10.078;2023-04-25T06:47:58;11.90;;;2.45;;
50102;SDS011;35993;52.604;10.078;2023-04-25T06:50:24;12.10;;;2.70;;
50102;SDS011;35993;52.604;10.078;2023-04-25T06:52:50;13.25;;;2.00;;
50102;SDS011;35993;52.604;10.078;2023-04-25T06:55:17;9.55;;;2.53;;
50102;SDS011;35993;52.604;10.078;2023-04-25T06:57:58;12.77;;;2.40;;
50102;SDS011;35993;52.604;10.078;2023-04-25T07:00:52;10.20;;;2.50;;
50102;SDS011;35993;52.604;10.078;2023-04-25T07:03:19;14.43;;;2.90;;
50102;SDS011;35993;52.604;10.078;2023-04-25T07:05:45;14.70;;;3.83;;
50102;SDS011;35993;52.604;10.078;2023-04-25T07:08:11;12.35;;;2.40;;
50102;SDS011;35993;52.604;10.078;2023-04-25T07:10:37;13.63;;;2.35;;
50102;SDS011;35993;52.604;10.078;2023-04-25T07:13:03;12.98;;;2.42;;
50102;SDS011;35993;52.604;10.078;2023-04-25T07:15:29;11.70;;;2.75;;
50102;SDS011;35993;52.604;10.078;2023-04-25T07:17:55;9.02;;;2.20;;
50102;SDS011;35993;52.604;10.078;2023-04-25T07:20:21;10.82;;;2.78;;
50102;SDS011;35993;52.604;10.078;2023-04-25T07:22:47;9.23;;;2.05;;
50102;SDS011;35993;52.604;10.078;2023-04-25T07:25:12;12.13;;;2.50;;
50102;SDS011;35993;52.604;10.078;2023-04-25T07:27:38;17.73;;;2.60;;
50102;SDS011;35993;52.604;10.078;2023-04-25T07:30:13;10.95;;;2.60;;
50102;SDS011;35993;52.604;10.078;2023-04-25T07:32:39;15.32;;;2.65;;
50102;SDS011;35993;52.604;10.078;2023-04-25T07:35:05;10.98;;;2.65;;
50102;SDS011;35993;52.604;10.078;2023-04-25T07:37:32;11.55;;;2.55;;
50102;SDS011;35993;52.604;10.078;2023-04-25T07:40:04;12.02;;;2.78;;
50102;SDS011;35993;52.604;10.078;2023-04-25T07:42:31;13.60;;;2.42;;
50102;SDS011;35993;52.604;10.078;2023-04-25T07:44:57;8.48;;;2.33;;
50102;SDS011;35993;52.604;10.078;2023-04-25T07:47:23;11.52;;;2.47;;
50102;SDS011;35993;52.604;10.078;2023-04-25T07:49:49;11.05;;;2.75;;
50102;SDS011;35993;52.604;10.078;2023-04-25T07:52:15;9.65;;;2.30;;
50102;SDS011;35993;52.604;10.078;2023-04-25T07:54:46;6.07;;;2.13;;
50102;SDS011;35993;52.604;10.078;2023-04-25T07:57:17;12.73;;;2.25;;
50102;SDS011;35993;52.604;10.078;2023-04-25T07:59:44;10.38;;;2.03;;
50102;SDS011;35993;52.604;10.078;2023-04-25T08:02:10;12.90;;;2.47;;
50102;SDS011;35993;52.604;10.078;2023-04-25T08:04:37;10.02;;;2.20;;
50102;SDS011;35993;52.604;10.078;2023-04-25T08:07:06;10.15;;;2.30;;
50102;SDS011;35993;52.604;10.078;2023-04-25T08:09:43;10.32;;;2.08;;
50102;SDS011;35993;52.604;10.078;2023-04-25T08:12:16;7.50;;;2.00;;
50102;SDS011;35993;52.604;10.078;2023-04-25T08:14:42;11.52;;;2.78;;
50102;SDS011;35993;52.604;10.078;2023-04-25T08:17:09;8.40;;;1.73;;
50102;SDS011;35993;52.604;10.078;2023-04-25T08:19:39;6.15;;;1.48;;
50102;SDS011;35993;52.604;10.078;2023-04-25T08:22:07;8.27;;;1.60;;
50102;SDS011;35993;52.604;10.078;2023-04-25T08:24:43;10.20;;;2.05;;
50102;SDS011;35993;52.604;10.078;2023-04-25T08:27:10;7.18;;;1.67;;
50102;SDS011;35993;52.604;10.078;2023-04-25T08:29:36;6.65;;;1.70;;
50102;SDS011;35993;52.604;10.078;2023-04-25T08:32:01;10.60;;;1.85;;
50102;SDS011;35993;52.604;10.078;2023-04-25T08:34:28;6.78;;;2.10;;
50102;SDS011;35993;52.604;10.078;2023-04-25T08:36:54;10.05;;;2.10;;
50102;SDS011;35993;52.604;10.078;2023-04-25T08:39:38;7.88;;;1.80;;
50102;SDS011;35993;52.604;10.078;2023-04-25T08:42:27;10.18;;;2.17;;
50102;SDS011;35993;52.604;10.078;2023-04-25T08:44:54;6.90;;;2.13;;
50102;SDS011;35993;52.604;10.078;2023-04-25T08:47:25;9.20;;;1.95;;
50102;SDS011;35993;52.604;10.078;2023-04-25T08:49:56;10.63;;;2.25;;
50102;SDS011;35993;52.604;10.078;2023-04-25T08:52:22;8.07;;;2.45;;
50102;SDS011;35993;52.604;10.078;2023-04-25T08:54:50;8.77;;;1.90;;
50102;SDS011;35993;52.604;10.078;2023-04-25T08:57:17;13.93;;;2.10;;
50102;SDS011;35993;52.604;10.078;2023-04-25T08:59:44;10.45;;;2.10;;
50102;SDS011;35993;52.604;10.078;2023-04-25T09:02:12;7.50;;;2.13;;
50102;SDS011;35993;52.604;10.078;2023-04-25T09:04:43;5.85;;;1.80;;
50102;SDS011;35993;52.604;10.078;2023-04-25T09:07:09;7.75;;;1.85;;
50102;SDS011;35993;52.604;10.078;2023-04-25T09:09:35;5.90;;;1.45;;
50102;SDS011;35993;52.604;10.078;2023-04-25T09:12:01;8.82;;;1.70;;
50102;SDS011;35993;52.604;10.078;2023-04-25T09:14:27;8.40;;;1.65;;
50102;SDS011;35993;52.604;10.078;2023-04-25T09:17:03;8.00;;;1.70;;
50102;SDS011;35993;52.604;10.078;2023-04-25T09:19:51;6.55;;;1.50;;
50102;SDS011;35993;52.604;10.078;2023-04-25T09:22:24;8.32;;;1.65;;
50102;SDS011;35993;52.604;10.078;2023-04-25T09:24:50;6.07;;;1.50;;
50102;SDS011;35993;52.604;10.078;2023-04-25T09:27:20;7.50;;;1.60;;
50102;SDS011;35993;52.604;10.078;2023-04-25T09:29:59;9.38;;;1.70;;
50102;SDS011;35993;52.604;10.078;2023-04-25T09:32:42;4.45;;;1.67;;
50102;SDS011;35993;52.604;10.078;2023-04-25T09:35:09;5.05;;;1.50;;
50102;SDS011;35993;52.604;10.078;2023-04-25T09:37:35;8.75;;;1.70;;
50102;SDS011;35993;52.604;10.078;2023-04-25T09:40:19;8.70;;;1.80;;
50102;SDS011;35993;52.604;10.078;2023-04-25T09:43:05;6.47;;;2.20;;
50102;SDS011;35993;52.604;10.078;2023-04-25T09:45:40;10.18;;;1.83;;
50102;SDS011;35993;52.604;10.078;2023-04-25T09:48:07;5.28;;;1.63;;
50102;SDS011;35993;52.604;10.078;2023-04-25T09:50:36;5.18;;;1.52;;
50102;SDS011;35993;52.604;10.078;2023-04-25T09:53:07;5.63;;;1.98;;
50102;SDS011;35993;52.604;10.078;2023-04-25T09:55:51;7.65;;;1.80;;
50102;SDS011;35993;52.604;10.078;2023-04-25T09:58:18;5.45;;;1.98;;
50102;SDS011;35993;52.604;10.078;2023-04-25T10:00:45;7.13;;;1.52;;
50102;SDS011;35993;52.604;10.078;2023-04-25T10:03:24;6.25;;;2.17;;
50102;SDS011;35993;52.604;10.078;2023-04-25T10:06:29;6.78;;;1.50;;
50102;SDS011;35993;52.604;10.078;2023-04-25T10:08:56;5.47;;;1.50;;
50102;SDS011;35993;52.604;10.078;2023-04-25T10:11:23;4.65;;;1.50;;
50102;SDS011;35993;52.604;10.078;2023-04-25T10:13:51;5.05;;;1.15;;
50102;SDS011;35993;52.604;10.078;2023-04-25T10:16:17;11.15;;;2.22;;
50102;SDS011;35993;52.604;10.078;2023-04-25T10:18:44;7.72;;;1.80;;
50102;SDS011;35993;52.604;10.078;2023-04-25T10:21:09;5.28;;;1.33;;
50102;SDS011;35993;52.604;10.078;2023-04-25T10:23:35;6.38;;;1.52;;
50102;SDS011;35993;52.604;10.078;2023-04-25T10:26:02;10.35;;;1.77;;
50102;SDS011;35993;52.604;10.078;2023-04-25T10:28:27;6.30;;;1.83;;
50102;SDS011;35993;52.604;10.078;2023-04-25T10:33:29;4.30;;;1.55;;
50102;SDS011;35993;52.604;10.078;2023-04-25T10:36:11;5.53;;;1.70;;
50102;SDS011;35993;52.604;10.078;2023-04-25T10:38:38;7.72;;;1.75;;
50102;SDS011;35993;52.604;10.078;2023-04-25T10:41:06;5.05;;;1.60;;
50102;SDS011;35993;52.604;10.078;2023-04-25T10:43:36;11.77;;;2.15;;
50102;SDS011;35993;52.604;10.078;2023-04-25T10:48:38;5.60;;;1.40;;
50102;SDS011;35993;52.604;10.078;2023-04-25T10:51:11;3.53;;;1.70;;
50102;SDS011;35993;52.604;10.078;2023-04-25T10:53:40;7.10;;;1.38;;
50102;SDS011;35993;52.604;10.078;2023-04-25T10:56:48;4.38;;;1.42;;
50102;SDS011;35993;52.604;10.078;2023-04-25T10:59:09;4.65;;;1.50;;
50102;SDS011;35993;52.604;10.078;2023-04-25T11:01:37;4.43;;;1.30;;
50102;SDS011;35993;52.604;10.078;2023-04-25T11:04:04;5.60;;;1.40;;
50102;SDS011;35993;52.604;10.078;2023-04-25T11:06:46;6.45;;;1.73;;
50102;SDS011;35993;52.604;10.078;2023-04-25T11:09:23;8.10;;;1.83;;
50102;SDS011;35993;52.604;10.078;2023-04-25T11:11:53;3.60;;;1.48;;
50102;SDS011;35993;52.604;10.078;2023-04-25T11:14:20;5.03;;;1.27;;
50102;SDS011;35993;52.604;10.078;2023-04-25T11:16:47;6.47;;;1.40;;
50102;SDS011;35993;52.604;10.078;2023-04-25T11:19:13;2.97;;;1.30;;
50102;SDS011;35993;52.604;10.078;2023-04-25T11:21:38;5.43;;;1.23;;
50102;SDS011;35993;52.604;10.078;2023-04-25T11:24:04;3.60;;;1.02;;
50102;SDS011;35993;52.604;10.078;2023-04-25T11:26:30;5.38;;;1.63;;
50102;SDS011;35993;52.604;10.078;2023-04-25T11:28:59;4.03;;;1.20;;
50102;SDS011;35993;52.604;10.078;2023-04-25T11:31:28;5.43;;;1.40;;
50102;SDS011;35993;52.604;10.078;2023-04-25T11:33:54;6.35;;;1.33;;
50102;SDS011;35993;52.604;10.078;2023-04-25T11:36:22;5.28;;;1.20;;
50102;SDS011;35993;52.604;10.078;2023-04-25T11:38:50;9.35;;;1.50;;
50102;SDS011;35993;52.604;10.078;2023-04-25T11:41:17;5.47;;;1.40;;
50102;SDS011;35993;52.604;10.078;2023-04-25T11:43:43;4.30;;;1.15;;
50102;SDS011;35993;52.604;10.078;2023-04-25T11:46:09;4.28;;;1.20;;
50102;SDS011;35993;52.604;10.078;2023-04-25T11:48:41;6.97;;;1.60;;
50102;SDS011;35993;52.604;10.078;2023-04-25T11:51:08;6.40;;;1.40;;
50102;SDS011;35993;52.604;10.078;2023-04-25T11:53:35;3.67;;;1.20;;
50102;SDS011;35993;52.604;10.078;2023-04-25T11:56:01;5.35;;;1.45;;
50102;SDS011;35993;52.604;10.078;2023-04-25T11:58:27;6.45;;;1.20;;
50102;SDS011;35993;52.604;10.078;2023-04-25T12:00:53;3.88;;;0.93;;
50102;SDS011;35993;52.604;10.078;2023-04-25T12:03:19;5.68;;;1.17;;
50102;SDS011;35993;52.604;10.078;2023-04-25T12:05:45;3.58;;;1.30;;
50102;SDS011;35993;52.604;10.078;2023-04-25T12:08:15;4.25;;;1.00;;
50102;SDS011;35993;52.604;10.078;2023-04-25T12:10:42;3.58;;;1.33;;
50102;SDS011;35993;52.604;10.078;2023-04-25T12:13:19;8.68;;;1.35;;
50102;SDS011;35993;52.604;10.078;2023-04-25T12:15:46;6.20;;;1.20;;
50102;SDS011;35993;52.604;10.078;2023-04-25T12:18:11;3.55;;;1.00;;
50102;SDS011;35993;52.604;10.078;2023-04-25T12:20:37;2.75;;;1.17;;
50102;SDS011;35993;52.604;10.078;2023-04-25T12:23:05;3.70;;;1.20;;
50102;SDS011;35993;52.604;10.078;2023-04-25T12:25:42;5.03;;;1.52;;
50102;SDS011;35993;52.604;10.078;2023-04-25T12:28:19;2.47;;;1.05;;
50102;SDS011;35993;52.604;10.078;2023-04-25T12:33:23;2.58;;;1.20;;
50102;SDS011;35993;52.604;10.078;2023-04-25T12:35:54;5.10;;;1.10;;
50102;SDS011;35993;52.604;10.078;2023-04-25T12:38:27;2.67;;;0.93;;
50102;SDS011;35993;52.604;10.078;2023-04-25T12:40:57;5.13;;;1.20;;
50102;SDS011;35993;52.604;10.078;2023-04-25T12:43:23;4.78;;;1.10;;
50102;SDS011;35993;52.604;10.078;2023-04-25T12:45:52;3.63;;;1.10;;
50102;SDS011;35993;52.604;10.078;2023-04-25T12:48:19;5.63;;;1.10;;
50102;SDS011;35993;52.604;10.078;2023-04-25T12:50:45;2.85;;;1.08;;
50102;SDS011;35993;52.604;10.078;2023-04-25T12:53:14;5.03;;;1.45;;
50102;SDS011;35993;52.604;10.078;2023-04-25T12:55:43;3.15;;;1.08;;
50102;SDS011;35993;52.604;10.078;2023-04-25T12:58:11;4.10;;;1.08;;
50102;SDS011;35993;52.604;10.078;2023-04-25T13:00:36;6.35;;;1.10;;
50102;SDS011;35993;52.604;10.078;2023-04-25T13:03:02;3.28;;;1.00;;
50102;SDS011;35993;52.604;10.078;2023-04-25T13:05:28;2.85;;;0.77;;
50102;SDS011;35993;52.604;10.078;2023-04-25T13:07:55;2.38;;;0.80;;
50102;SDS011;35993;52.604;10.078;2023-04-25T13:10:20;4.55;;;1.00;;
50102;SDS011;35993;52.604;10.078;2023-04-25T13:12:46;1.70;;;0.70;;
50102;SDS011;35993;52.604;10.078;2023-04-25T13:15:12;5.05;;;1.20;;
50102;SDS011;35993;52.604;10.078;2023-04-25T13:17:38;3.95;;;1.50;;
50102;SDS011;35993;52.604;10.078;2023-04-25T13:20:06;5.43;;;1.10;;
50102;SDS011;35993;52.604;10.078;2023-04-25T13:22:34;3.80;;;0.98;;
50102;SDS011;35993;52.604;10.078;2023-04-25T13:25:02;3.65;;;1.05;;
50102;SDS011;35993;52.604;10.078;2023-04-25T13:27:28;3.00;;;1.08;;
50102;SDS011;35993;52.604;10.078;2023-04-25T13:29:54;4.75;;;1.00;;
50102;SDS011;35993;52.604;10.078;2023-04-25T13:32:19;4.25;;;1.10;;
50102;SDS011;35993;52.604;10.078;2023-04-25T13:34:45;4.40;;;1.20;;
50102;SDS011;35993;52.604;10.078;2023-04-25T13:37:10;6.30;;;1.35;;
50102;SDS011;35993;52.604;10.078;2023-04-25T13:39:36;2.53;;;1.10;;
50102;SDS011;35993;52.604;10.078;2023-04-25T13:42:01;4.47;;;0.90;;
50102;SDS011;35993;52.604;10.078;2023-04-25T13:44:27;3.92;;;1.23;;
50102;SDS011;35993;52.604;10.078;2023-04-25T13:46:52;5.07;;;1.23;;
50102;SDS011;35993;52.604;10.078;2023-04-25T13:49:19;5.03;;;1.10;;
50102;SDS011;35993;52.604;10.078;2023-04-25T13:51:45;3.75;;;1.23;;
50102;SDS011;35993;52.604;10.078;2023-04-25T13:54:10;5.90;;;1.02;;
50102;SDS011;35993;52.604;10.078;2023-04-25T13:56:36;4.35;;;1.40;;
50102;SDS011;35993;52.604;10.078;2023-04-25T13:59:02;6.15;;;1.40;;
50102;SDS011;35993;52.604;10.078;2023-04-25T14:01:28;4.88;;;1.40;;
50102;SDS011;35993;52.604;10.078;2023-04-25T14:03:55;3.78;;;1.02;;
50102;SDS011;35993;52.604;10.078;2023-04-25T14:06:21;5.82;;;1.42;;
50102;SDS011;35993;52.604;10.078;2023-04-25T14:08:51;6.15;;;1.48;;
50102;SDS011;35993;52.604;10.078;2023-04-25T14:11:17;5.10;;;1.20;;
50102;SDS011;35993;52.604;10.078;2023-04-25T14:13:44;5.68;;;1.20;;
50102;SDS011;35993;52.604;10.078;2023-04-25T14:16:09;6.35;;;1.30;;
50102;SDS011;35993;52.604;10.078;2023-04-25T14:18:35;4.95;;;1.20;;
50102;SDS011;35993;52.604;10.078;2023-04-25T14:21:00;3.17;;;1.30;;
50102;SDS011;35993;52.604;10.078;2023-04-25T14:23:26;4.60;;;1.33;;
50102;SDS011;35993;52.604;10.078;2023-04-25T14:25:52;3.35;;;1.20;;
50102;SDS011;35993;52.604;10.078;2023-04-25T14:28:17;4.72;;;1.27;;
50102;SDS011;35993;52.604;10.078;2023-04-25T14:30:43;2.78;;;1.23;;
50102;SDS011;35993;52.604;10.078;2023-04-25T14:33:08;3.83;;;1.40;;
50102;SDS011;35993;52.604;10.078;2023-04-25T14:35:34;5.07;;;1.80;;
50102;SDS011;35993;52.604;10.078;2023-04-25T14:38:00;3.92;;;1.35;;
50102;SDS011;35993;52.604;10.078;2023-04-25T14:40:26;2.63;;;1.17;;
50102;SDS011;35993;52.604;10.078;2023-04-25T14:42:51;8.27;;;2.45;;
50102;SDS011;35993;52.604;10.078;2023-04-25T14:45:17;7.65;;;2.92;;
50102;SDS011;35993;52.604;10.078;2023-04-25T14:47:43;6.63;;;2.10;;
50102;SDS011;35993;52.604;10.078;2023-04-25T14:50:09;2.95;;;1.42;;
50102;SDS011;35993;52.604;10.078;2023-04-25T14:52:35;2.70;;;1.20;;
50102;SDS011;35993;52.604;10.078;2023-04-25T14:55:01;7.72;;;1.85;;
50102;SDS011;35993;52.604;10.078;2023-04-25T14:57:33;4.32;;;1.40;;